createdAt,value
2023-05-19T00:01:10.316Z,13.09
2023-05-19T00:03:50.657Z,12.96
2023-05-19T00:06:26.404Z,12.95
2023-05-19T00:09:05.864Z,12.93
2023-05-19T00:11:37.920Z,12.91
2023-05-19T00:14:10.893Z,12.82
2023-05-19T00:16:41.720Z,12.75
2023-05-19T00:19:13.401Z,12.71
2023-05-19T00:21:44.019Z,12.63
2023-05-19T00:24:14.558Z,12.58
2023-05-19T00:26:44.863Z,12.48
2023-05-19T00:29:19.669Z,12.48
2023-05-19T00:31:50.281Z,12.45
2023-05-19T00:34:20.579Z,12.44
2023-05-19T00:36:51.185Z,12.38
2023-05-19T00:39:21.702Z,12.31
2023-05-19T00:41:52.799Z,12.30
2023-05-19T00:44:23.156Z,12.31
2023-05-19T00:46:53.684Z,12.30
2023-05-19T00:49:24.162Z,12.24
2023-05-19T00:51:54.957Z,12.18
2023-05-19T00:54:28.608Z,12.17
2023-05-19T00:57:00.735Z,12.17
2023-05-19T00:59:31.253Z,12.13
2023-05-19T01:02:04.072Z,12.10
2023-05-19T01:04:37.536Z,12.00
2023-05-19T01:07:08.474Z,11.97
2023-05-19T01:09:38.992Z,11.91
2023-05-19T01:12:11.933Z,11.80
2023-05-19T01:14:43.086Z,11.73
2023-05-19T01:17:32.345Z,11.73
2023-05-19T01:20:15.974Z,11.66
2023-05-19T01:23:16.459Z,11.65
2023-05-19T01:26:06.524Z,11.59
2023-05-19T01:28:55.188Z,11.56
2023-05-19T01:31:28.389Z,11.52
2023-05-19T01:34:00.021Z,11.49
2023-05-19T01:36:32.365Z,11.51
2023-05-19T01:39:04.735Z,11.42
2023-05-19T01:41:36.177Z,11.38
2023-05-19T01:44:06.956Z,11.31
2023-05-19T01:46:38.170Z,11.31
2023-05-19T01:49:09.512Z,11.34
2023-05-19T01:51:40.433Z,11.31
2023-05-19T01:54:10.736Z,11.26
2023-05-19T01:56:51.342Z,11.22
2023-05-19T01:59:53.796Z,11.14
2023-05-19T02:02:36.090Z,11.10
2023-05-19T02:05:15.600Z,11.04
2023-05-19T02:08:06.908Z,11.05
2023-05-19T02:10:40.859Z,11.04
2023-05-19T02:13:12.762Z,11.03
2023-05-19T02:15:44.923Z,10.97
2023-05-19T02:18:19.130Z,10.91
2023-05-19T02:20:53.758Z,10.90
2023-05-19T02:23:24.893Z,10.91
2023-05-19T02:25:55.227Z,10.85
2023-05-19T02:28:29.549Z,10.78
2023-05-19T02:31:01.425Z,10.75
2023-05-19T02:33:32.735Z,10.74
2023-05-19T02:36:03.097Z,10.73
2023-05-19T02:38:33.875Z,10.70
2023-05-19T02:41:04.567Z,10.68
2023-05-19T02:43:34.996Z,10.67
2023-05-19T02:46:05.326Z,10.63
2023-05-19T02:48:35.595Z,10.61
2023-05-19T02:51:06.622Z,10.64
2023-05-19T02:53:37.114Z,10.63
2023-05-19T02:56:07.732Z,10.56
2023-05-19T02:58:38.107Z,10.54
2023-05-19T03:01:10.725Z,10.52
2023-05-19T03:03:41.040Z,10.47
2023-05-19T03:06:11.519Z,10.47
2023-05-19T03:08:42.492Z,10.42
2023-05-19T03:11:13.013Z,10.37
2023-05-19T03:13:43.632Z,10.40
2023-05-19T03:16:15.277Z,10.40
2023-05-19T03:18:45.748Z,10.43
2023-05-19T03:21:16.135Z,10.33
2023-05-19T03:23:46.734Z,10.33
2023-05-19T03:26:17.117Z,10.33
2023-05-19T03:28:47.940Z,10.32
2023-05-19T03:31:18.262Z,10.35
2023-05-19T03:33:48.674Z,10.29
2023-05-19T03:36:19.144Z,10.20
2023-05-19T03:38:49.692Z,10.16
2023-05-19T03:41:19.844Z,10.09
2023-05-19T03:43:50.591Z,10.06
2023-05-19T03:46:21.765Z,9.96
2023-05-19T03:49:20.804Z,9.98
2023-05-19T03:52:09.309Z,9.95
2023-05-19T03:54:59.896Z,9.99
2023-05-19T03:57:30.695Z,9.96
2023-05-19T04:00:01.408Z,9.94
2023-05-19T04:02:42.463Z,9.89
2023-05-19T04:05:13.495Z,9.85
2023-05-19T04:07:44.351Z,9.89
2023-05-19T04:10:15.079Z,9.88
2023-05-19T04:12:45.264Z,9.82
2023-05-19T04:15:15.710Z,9.81
2023-05-19T04:17:46.007Z,9.77
2023-05-19T04:20:17.761Z,9.74
2023-05-19T04:22:47.930Z,9.71
2023-05-19T04:25:18.226Z,9.70
2023-05-19T04:27:49.562Z,9.62
2023-05-19T04:30:23.364Z,9.62
2023-05-19T04:32:54.056Z,9.61
2023-05-19T04:35:24.767Z,9.59
2023-05-19T04:37:58.115Z,9.58
2023-05-19T04:40:32.607Z,9.58
2023-05-19T04:43:03.376Z,9.58
2023-05-19T04:45:35.358Z,9.59
2023-05-19T04:48:06.476Z,9.54
2023-05-19T04:50:39.780Z,9.50
2023-05-19T04:53:11.437Z,9.45
2023-05-19T04:55:42.220Z,9.44
2023-05-19T04:58:12.788Z,9.38
2023-05-19T05:00:43.067Z,9.33
2023-05-19T05:03:15.734Z,9.26
2023-05-19T05:05:46.262Z,9.23
2023-05-19T05:08:17.665Z,9.26
2023-05-19T05:10:48.095Z,9.23
2023-05-19T05:13:18.902Z,9.22
2023-05-19T05:15:49.669Z,9.20
2023-05-19T05:18:20.517Z,9.16
2023-05-19T05:20:51.133Z,9.16
2023-05-19T05:23:22.341Z,9.19
2023-05-19T05:25:53.502Z,9.19
2023-05-19T05:28:25.066Z,9.13
2023-05-19T05:30:57.593Z,9.13
2023-05-19T05:33:28.385Z,9.09
2023-05-19T05:35:58.725Z,9.06
2023-05-19T05:38:29.749Z,8.99
2023-05-19T05:41:00.378Z,8.96
2023-05-19T05:43:31.443Z,9.03
2023-05-19T05:46:05.352Z,8.96
2023-05-19T05:48:37.115Z,8.93
2023-05-19T05:51:08.879Z,8.93
2023-05-19T05:53:46.408Z,8.93
2023-05-19T05:56:18.544Z,8.86
2023-05-19T05:58:53.277Z,8.80
2023-05-19T06:01:25.111Z,8.89
2023-05-19T06:03:56.468Z,8.85
2023-05-19T06:06:27.279Z,8.89
2023-05-19T06:08:58.174Z,8.86
2023-05-19T06:11:29.929Z,8.83
2023-05-19T06:14:01.858Z,8.82
2023-05-19T06:16:49.939Z,8.75
2023-05-19T06:19:26.319Z,8.71
2023-05-19T06:21:58.381Z,8.68
2023-05-19T06:24:28.561Z,8.61
2023-05-19T06:26:58.946Z,8.62
2023-05-19T06:29:29.181Z,8.58
2023-05-19T06:32:04.941Z,8.55
2023-05-19T06:34:35.318Z,8.56
2023-05-19T06:37:05.671Z,8.54
2023-05-19T06:39:36.818Z,8.52
2023-05-19T06:42:07.310Z,8.52
2023-05-19T06:45:13.036Z,8.47
2023-05-19T06:47:43.778Z,8.45
2023-05-19T06:50:14.474Z,8.38
2023-05-19T06:52:45.803Z,8.35
2023-05-19T06:55:16.527Z,8.33
2023-05-19T06:57:46.906Z,8.28
2023-05-19T07:00:21.379Z,8.28
2023-05-19T07:02:55.900Z,8.25
2023-05-19T07:05:27.389Z,8.21
2023-05-19T07:08:00.639Z,8.23
2023-05-19T07:10:32.512Z,8.17
2023-05-19T07:13:03.158Z,8.14
2023-05-19T07:15:36.033Z,8.07
2023-05-19T07:18:07.071Z,8.04
2023-05-19T07:20:38.727Z,8.04
2023-05-19T07:23:08.895Z,8.01
2023-05-19T07:25:39.663Z,8.03
2023-05-19T07:28:09.795Z,8.10
2023-05-19T07:30:40.524Z,8.06
2023-05-19T07:33:10.706Z,8.04
2023-05-19T07:35:41.725Z,8.03
2023-05-19T07:38:12.516Z,8.00
2023-05-19T07:40:42.899Z,8.01
2023-05-19T07:43:13.083Z,7.94
2023-05-19T07:45:43.610Z,7.89
2023-05-19T07:48:14.039Z,7.83
2023-05-19T07:50:44.262Z,7.87
2023-05-19T07:53:14.400Z,7.86
2023-05-19T07:55:44.695Z,7.86
2023-05-19T07:58:14.826Z,7.87
2023-05-19T08:00:45.311Z,7.91
2023-05-19T08:03:18.979Z,7.89
2023-05-19T08:05:49.361Z,7.83
2023-05-19T08:08:21.011Z,7.82
2023-05-19T08:10:51.281Z,7.79
2023-05-19T08:13:21.561Z,7.76
2023-05-19T08:15:51.917Z,7.77
2023-05-19T08:18:22.569Z,7.77
2023-05-19T08:20:52.756Z,7.79
2023-05-19T08:23:23.688Z,7.77
2023-05-19T08:25:54.184Z,7.75
2023-05-19T08:28:24.464Z,7.72
2023-05-19T08:30:54.835Z,7.70
2023-05-19T08:33:25.307Z,7.69
2023-05-19T08:35:56.681Z,7.69
2023-05-19T08:38:27.950Z,7.66
2023-05-19T08:40:59.333Z,7.62
2023-05-19T08:43:30.185Z,7.63
2023-05-19T08:46:01.974Z,7.58
2023-05-19T08:48:35.076Z,7.58
2023-05-19T08:51:11.259Z,7.62
2023-05-19T08:53:46.542Z,7.61
2023-05-19T08:56:19.913Z,7.58
2023-05-19T08:58:53.275Z,7.55
2023-05-19T09:01:25.260Z,7.51
2023-05-19T09:03:55.614Z,7.45
2023-05-19T09:06:26.363Z,7.42
2023-05-19T09:08:57.006Z,7.39
2023-05-19T09:11:27.372Z,7.42
2023-05-19T09:13:57.737Z,7.36
2023-05-19T09:16:30.206Z,7.31
2023-05-19T09:19:02.403Z,7.28
2023-05-19T09:21:33.149Z,7.25
2023-05-19T09:24:11.308Z,7.24
2023-05-19T09:26:43.154Z,7.24
2023-05-19T09:29:14.311Z,7.28
2023-05-19T09:32:01.825Z,7.28
2023-05-19T09:34:32.838Z,7.19
2023-05-19T09:37:03.363Z,7.17
2023-05-19T09:39:33.993Z,7.09
2023-05-19T09:42:08.041Z,7.09
2023-05-19T09:44:38.534Z,7.11
2023-05-19T09:47:11.720Z,7.08
2023-05-19T09:49:48.977Z,7.04
2023-05-19T09:52:19.545Z,7.03
2023-05-19T09:54:52.930Z,7.08
2023-05-19T09:57:30.731Z,7.05
2023-05-19T10:00:02.358Z,7.04
2023-05-19T10:02:35.080Z,7.05
2023-05-19T10:05:07.231Z,7.05
2023-05-19T10:07:38.991Z,7.04
2023-05-19T10:10:30.124Z,7.01
2023-05-19T10:13:01.757Z,6.98
2023-05-19T10:15:34.519Z,6.95
2023-05-19T10:18:13.131Z,6.95
2023-05-19T10:20:44.058Z,6.97
2023-05-19T10:23:14.335Z,6.95
2023-05-19T10:25:44.980Z,6.98
2023-05-19T10:28:18.927Z,7.05
2023-05-19T10:30:53.613Z,7.07
2023-05-19T10:33:43.795Z,7.12
2023-05-19T10:36:40.968Z,7.22
2023-05-19T10:39:39.333Z,7.55
2023-05-19T10:42:16.120Z,8.23
2023-05-19T10:45:05.291Z,8.49
2023-05-19T10:47:36.205Z,8.54
2023-05-19T10:50:07.976Z,8.66
2023-05-19T10:52:40.702Z,8.69
2023-05-19T10:55:18.896Z,8.68
2023-05-19T10:57:58.458Z,8.72
2023-05-19T11:00:33.129Z,9.16
2023-05-19T11:03:17.349Z,9.67
2023-05-19T11:05:47.962Z,10.06
2023-05-19T11:08:19.943Z,10.42
2023-05-19T11:10:54.193Z,10.77
2023-05-19T11:13:31.044Z,11.10
2023-05-19T11:16:08.584Z,11.38
2023-05-19T11:18:39.657Z,11.61
2023-05-19T11:21:09.970Z,11.79
2023-05-19T11:23:41.253Z,11.94
2023-05-19T11:26:11.685Z,12.14
2023-05-19T11:28:43.438Z,12.35
2023-05-19T11:31:13.921Z,12.55
2023-05-19T11:33:44.290Z,12.76
2023-05-19T11:36:14.870Z,12.95
2023-05-19T11:38:46.757Z,13.10
2023-05-19T11:41:19.508Z,13.24
2023-05-19T11:43:51.120Z,13.41
2023-05-19T11:46:21.441Z,13.58
2023-05-19T11:48:51.895Z,13.72
2023-05-19T11:51:24.009Z,13.91
2023-05-19T11:53:55.501Z,14.12
2023-05-19T11:56:28.569Z,14.33
2023-05-19T11:58:58.808Z,14.56
2023-05-19T12:01:30.689Z,14.79
2023-05-19T12:04:01.108Z,14.87
2023-05-19T12:06:31.757Z,15.02
2023-05-19T12:09:03.158Z,15.21
2023-05-19T12:11:33.748Z,15.46
2023-05-19T12:14:04.637Z,15.73
2023-05-19T12:16:36.621Z,16.06
2023-05-19T12:19:10.923Z,16.18
2023-05-19T12:21:41.347Z,16.37
2023-05-19T12:24:12.465Z,16.38
2023-05-19T12:26:42.862Z,16.67
2023-05-19T12:29:15.319Z,16.78
2023-05-19T12:31:49.177Z,16.98
2023-05-19T12:34:19.564Z,16.68
2023-05-19T12:36:49.852Z,16.35
2023-05-19T12:39:21.464Z,16.58
2023-05-19T12:41:51.852Z,16.85
2023-05-19T12:44:22.016Z,16.95
2023-05-19T12:46:54.392Z,16.90
2023-05-19T12:49:24.198Z,17.48
2023-05-19T12:51:55.275Z,17.36
2023-05-19T12:54:25.642Z,17.77
2023-05-19T12:56:55.965Z,17.94
2023-05-19T12:59:38.271Z,18.19
2023-05-19T13:02:09.441Z,18.36
2023-05-19T13:04:39.630Z,18.55
2023-05-19T13:07:10.932Z,18.68
2023-05-19T13:09:41.091Z,19.01
2023-05-19T13:12:11.415Z,19.11
2023-05-19T13:14:43.592Z,19.10
2023-05-19T13:17:13.931Z,19.04
2023-05-19T13:19:44.348Z,19.08
2023-05-19T13:22:14.731Z,19.21
2023-05-19T13:24:45.092Z,19.24
2023-05-19T13:27:15.378Z,19.06
2023-05-19T13:29:45.646Z,19.19
2023-05-19T13:32:15.973Z,19.56
2023-05-19T13:34:46.074Z,19.77
2023-05-19T13:37:16.228Z,19.86
2023-05-19T13:39:46.396Z,20.06
2023-05-19T13:42:18.592Z,20.12
2023-05-19T13:44:50.187Z,20.05
2023-05-19T13:47:20.450Z,20.05
2023-05-19T13:49:51.448Z,20.44
2023-05-19T13:52:23.093Z,20.40
2023-05-19T13:54:55.723Z,20.57
2023-05-19T13:57:27.526Z,20.81
2023-05-19T14:00:03.289Z,21.05
2023-05-19T14:02:43.583Z,21.49
2023-05-19T14:05:14.211Z,21.65
2023-05-19T14:07:45.771Z,21.70
2023-05-19T14:10:16.232Z,21.81
2023-05-19T14:13:12.294Z,21.75
2023-05-19T14:15:39.007Z,22.00
2023-05-19T14:18:09.766Z,22.48
2023-05-19T14:20:41.544Z,22.53
2023-05-19T14:23:12.226Z,22.83
2023-05-19T14:25:42.683Z,23.21
2023-05-19T14:28:12.968Z,23.34
2023-05-19T14:30:43.507Z,23.58
2023-05-19T14:33:14.371Z,23.66
2023-05-19T14:35:45.644Z,23.81
2023-05-19T14:38:15.879Z,24.16
2023-05-19T14:40:47.963Z,24.08
2023-05-19T14:43:18.147Z,24.21
2023-05-19T14:45:48.466Z,24.08
2023-05-19T14:48:19.432Z,24.17
2023-05-19T14:50:49.903Z,24.26
2023-05-19T14:53:20.121Z,24.26
2023-05-19T14:55:50.952Z,24.49
2023-05-19T14:58:28.972Z,24.78
2023-05-19T15:01:00.325Z,25.79
2023-05-19T15:03:30.624Z,26.13
2023-05-19T15:06:01.304Z,25.83
2023-05-19T15:08:31.536Z,25.08
2023-05-19T15:11:01.769Z,25.33
2023-05-19T15:13:32.151Z,24.99
2023-05-19T15:16:16.205Z,25.11
2023-05-19T15:18:47.671Z,25.50
2023-05-19T15:21:17.882Z,25.62
2023-05-19T15:23:48.318Z,25.94
2023-05-19T15:26:18.864Z,25.62
2023-05-19T15:28:49.371Z,25.87
2023-05-19T15:31:19.808Z,25.98
2023-05-19T15:33:50.219Z,26.08
2023-05-19T15:36:21.287Z,26.01
2023-05-19T15:38:52.068Z,25.97
2023-05-19T15:41:23.080Z,25.93
2023-05-19T15:43:54.712Z,26.13
2023-05-19T15:46:24.990Z,26.65
2023-05-19T15:48:55.360Z,26.34
2023-05-19T15:51:26.105Z,26.56
2023-05-19T15:53:57.208Z,26.69
2023-05-19T15:56:27.634Z,26.04
2023-05-19T15:58:58.061Z,26.13
2023-05-19T16:01:28.418Z,25.96
2023-05-19T16:04:03.385Z,26.60
2023-05-19T16:06:33.706Z,28.31
2023-05-19T16:09:04.129Z,28.75
2023-05-19T16:11:34.286Z,29.19
2023-05-19T16:14:04.656Z,28.13
2023-05-19T16:16:34.851Z,28.08
2023-05-19T16:19:05.159Z,27.65
2023-05-19T16:21:35.536Z,27.89
2023-05-19T16:24:06.067Z,28.52
2023-05-19T16:26:36.448Z,27.91
2023-05-19T16:29:06.730Z,28.33
2023-05-19T16:31:37.405Z,28.97
2023-05-19T16:34:07.759Z,29.11
2023-05-19T16:36:38.012Z,28.56
2023-05-19T16:39:08.495Z,28.42
2023-05-19T16:41:38.772Z,28.60
2023-05-19T16:44:09.091Z,28.59
2023-05-19T16:46:39.480Z,27.96
2023-05-19T16:49:10.441Z,27.99
2023-05-19T16:51:40.935Z,28.31
2023-05-19T16:54:11.217Z,29.10
2023-05-19T16:56:41.692Z,29.16
2023-05-19T16:59:12.023Z,28.73
2023-05-19T17:01:42.457Z,28.29
2023-05-19T17:04:13.143Z,27.94
2023-05-19T17:06:43.297Z,28.40
2023-05-19T17:09:14.119Z,28.23
2023-05-19T17:11:44.300Z,28.06
2023-05-19T17:14:14.826Z,28.17
2023-05-19T17:16:45.144Z,28.67
2023-05-19T17:19:16.268Z,28.94
2023-05-19T17:21:47.331Z,28.94
2023-05-19T17:24:17.731Z,28.54
2023-05-19T17:26:47.904Z,29.00
2023-05-19T17:29:18.090Z,29.39
2023-05-19T17:31:48.434Z,29.38
2023-05-19T17:34:18.685Z,29.62
2023-05-19T17:36:50.791Z,28.86
2023-05-19T17:39:21.529Z,28.40
2023-05-19T17:41:51.973Z,28.42
2023-05-19T17:44:22.635Z,28.46
2023-05-19T17:46:53.677Z,28.52
2023-05-19T17:49:25.623Z,28.31
2023-05-19T17:51:56.513Z,28.60
2023-05-19T17:54:27.651Z,29.05
2023-05-19T17:57:00.456Z,28.66
2023-05-19T17:59:31.766Z,28.54
2023-05-19T18:02:02.330Z,28.67
2023-05-19T18:04:33.121Z,28.56
2023-05-19T18:07:07.031Z,28.75
2023-05-19T18:09:42.174Z,28.73
2023-05-19T18:12:12.272Z,28.87
2023-05-19T18:14:42.476Z,29.39
2023-05-19T18:17:12.572Z,29.04
2023-05-19T18:19:42.672Z,28.56
2023-05-19T18:22:14.179Z,28.78
2023-05-19T18:24:44.356Z,29.25
2023-05-19T18:27:14.590Z,29.26
2023-05-19T18:29:44.540Z,29.07
2023-05-19T18:32:16.728Z,29.03
2023-05-19T18:34:47.331Z,29.12
2023-05-19T18:37:17.444Z,29.10
2023-05-19T18:39:48.229Z,28.95
2023-05-19T18:42:18.515Z,28.83
2023-05-19T18:44:48.914Z,28.95
2023-05-19T18:47:23.977Z,28.63
2023-05-19T18:49:54.399Z,28.37
2023-05-19T18:52:25.437Z,28.40
2023-05-19T18:54:55.929Z,28.40
2023-05-19T18:57:26.016Z,28.31
2023-05-19T18:59:56.127Z,28.22
2023-05-19T19:02:26.405Z,28.33
2023-05-19T19:04:56.708Z,28.56
2023-05-19T19:07:28.904Z,28.47
2023-05-19T19:09:58.507Z,28.54
2023-05-19T19:12:28.352Z,28.01
2023-05-19T19:14:58.691Z,27.89
2023-05-19T19:17:28.869Z,27.51
2023-05-19T19:19:59.112Z,27.40
2023-05-19T19:22:29.473Z,27.34
2023-05-19T19:24:59.683Z,26.99
2023-05-19T19:27:32.596Z,26.72
2023-05-19T19:30:03.181Z,26.37
2023-05-19T19:32:34.632Z,26.31
2023-05-19T19:35:04.859Z,26.14
2023-05-19T19:37:35.141Z,26.25
2023-05-19T19:40:05.764Z,26.14
2023-05-19T19:42:36.281Z,26.04
2023-05-19T19:45:07.582Z,25.81
2023-05-19T19:47:37.919Z,25.65
2023-05-19T19:50:08.762Z,25.65
2023-05-19T19:52:40.935Z,25.32
2023-05-19T19:55:11.861Z,25.18
2023-05-19T19:57:42.170Z,25.01
2023-05-19T20:00:13.221Z,24.72
2023-05-19T20:02:55.673Z,24.60
2023-05-19T20:05:33.111Z,24.39
2023-05-19T20:08:03.527Z,24.16
2023-05-19T20:10:35.079Z,23.93
2023-05-19T20:13:05.682Z,23.63
2023-05-19T20:15:35.878Z,23.41
2023-05-19T20:18:06.274Z,23.04
2023-05-19T20:20:36.630Z,22.70
2023-05-19T20:23:06.871Z,22.49
2023-05-19T20:25:58.417Z,22.21
2023-05-19T20:28:33.673Z,21.81
2023-05-19T20:31:04.041Z,21.46
2023-05-19T20:33:34.211Z,21.19
2023-05-19T20:36:04.582Z,20.94
2023-05-19T20:38:34.760Z,20.51
2023-05-19T20:41:05.206Z,20.17
2023-05-19T20:43:35.934Z,20.05
2023-05-19T20:46:06.258Z,19.97
2023-05-19T20:48:36.523Z,19.86
2023-05-19T20:51:06.983Z,19.65
2023-05-19T20:53:37.843Z,19.41
2023-05-19T20:56:11.580Z,19.19
2023-05-19T20:58:42.258Z,19.06
2023-05-19T21:01:12.582Z,18.93
2023-05-19T21:03:42.948Z,18.70
2023-05-19T21:06:13.307Z,18.57
2023-05-19T21:08:43.541Z,18.45
2023-05-19T21:11:13.821Z,18.35
2023-05-19T21:13:44.630Z,18.25
2023-05-19T21:16:15.886Z,18.12
2023-05-19T21:18:46.031Z,17.95
2023-05-19T21:21:17.061Z,17.87
2023-05-19T21:23:47.387Z,17.74
2023-05-19T21:26:17.978Z,17.51
2023-05-19T21:28:49.202Z,17.48
2023-05-19T21:31:21.257Z,17.36
2023-05-19T21:33:51.610Z,17.16
2023-05-19T21:36:25.202Z,17.13
2023-05-19T21:38:55.820Z,17.15
2023-05-19T21:41:26.682Z,17.02
2023-05-19T21:43:57.270Z,16.88
2023-05-19T21:46:31.998Z,16.80
2023-05-19T21:49:02.760Z,16.75
2023-05-19T21:51:33.749Z,16.67
2023-05-19T21:54:05.802Z,16.57
2023-05-19T21:56:39.033Z,16.52
2023-05-19T21:59:10.815Z,16.41
2023-05-19T22:01:43.913Z,16.21
2023-05-19T22:04:16.593Z,16.03
2023-05-19T22:07:12.414Z,15.96
2023-05-19T22:09:43.356Z,16.04
2023-05-19T22:12:16.143Z,15.93
2023-05-19T22:14:47.239Z,15.89
2023-05-19T22:17:18.494Z,15.82
2023-05-19T22:19:49.466Z,15.76
2023-05-19T22:22:20.652Z,15.46
2023-05-19T22:24:52.263Z,15.41
2023-05-19T22:27:22.896Z,15.32
2023-05-19T22:29:55.254Z,15.17
2023-05-19T22:32:29.333Z,15.04
2023-05-19T22:34:59.599Z,14.98
2023-05-19T22:37:33.830Z,14.80
2023-05-19T22:40:04.834Z,14.71
2023-05-19T22:42:36.090Z,14.60
2023-05-19T22:45:07.855Z,14.57
2023-05-19T22:47:39.374Z,14.47
2023-05-19T22:50:13.724Z,14.37
2023-05-19T22:52:45.775Z,14.26
2023-05-19T22:55:16.659Z,14.16
2023-05-19T22:57:50.696Z,14.13
2023-05-19T23:00:23.537Z,14.11
2023-05-19T23:02:55.044Z,14.01
2023-05-19T23:05:46.114Z,13.92
2023-05-19T23:08:37.185Z,13.85
2023-05-19T23:11:09.414Z,13.78
2023-05-19T23:13:40.117Z,13.81
2023-05-19T23:16:11.218Z,13.71
2023-05-19T23:18:42.865Z,13.67
2023-05-19T23:21:18.001Z,13.53
2023-05-19T23:23:49.233Z,13.48
2023-05-19T23:26:22.124Z,13.39
2023-05-19T23:28:53.395Z,13.34
2023-05-19T23:31:24.404Z,13.27
2023-05-19T23:33:56.184Z,13.19
2023-05-19T23:36:27.222Z,13.12
2023-05-19T23:38:59.167Z,13.09
2023-05-19T23:41:33.208Z,13.12
2023-05-19T23:44:04.571Z,13.02
2023-05-19T23:46:35.695Z,12.99
2023-05-19T23:49:08.945Z,12.99
2023-05-19T23:51:39.212Z,12.96
2023-05-19T23:54:09.646Z,12.88
2023-05-19T23:56:39.939Z,12.88
2023-05-19T23:59:10.147Z,12.79
